Airport View

Enter AWOS ICAO identifier for current METAR.

ex. KFNL

KBTP 181116Z AUTO 11009KT 9SM -SN SCT022 BKN060 OVC085 M04/M06 A3023 RMK AO2 SNB08 P0000 FZRANO

18 Jan 2020 11:43

Frequency: 121.450

Phone: 724-586-6434

Other Area AWOS: KPJC - 42PN - KBVI - KPIT

TAF AMD KBVI 180957Z 1810/1906 12012KT P6SM SCT007 OVC025 TEMPO 1810/1812 BKN007 FM181400 14008KT 1SM -FZRASN BR OVC007 FM181700 17012KT 2SM -RA OVC007 WS020/21045KT FM182000 20012G22KT 3SM -RA OVC007 FM182300 23015G25KT P6SM OVC010